Galicia — ECEC — position and weather

sailwx.info

Track history (hours):
 
Tides and Currents Weather Stations Pressure Air Temp Water Temp Dewpoint Dewpoint Depression Visibility Wind Speed Wind Dir Waves Ship Positions

Galicia

Last reported at 2014-Sep-18 01:33 UTC. Time now 2014-Sep-18 01:37 UTC.
Position N 51°24' E 003°07'.

Length 149 m; draft 5.7 m.

Type: Cargo ship. MMSI: 224548000.

Date/timePositionNaut miles runAvg speedWind from/ knotsBaromVisibWave heightAir tempDewpointWater temp
2014-Sep-18 01:33N 51°24' E 003°07'5 2.5
2014-Sep-17 23:29N 51°20' E 003°13'2 1.3
2014-Sep-17 22:13N 51°19' E 003°14'0 0.0
2014-Sep-17 21:25N 51°19' E 003°14'0 0.0
2014-Sep-17 20:31N 51°19' E 003°14'0 0.0
2014-Sep-17 19:31N 51°19' E 003°14'0 0.0
2014-Sep-17 18:31N 51°19' E 003°14'0 0.0
2014-Sep-17 17:31N 51°19' E 003°14'0 0.0
2014-Sep-17 16:31N 51°19' E 003°14'0 0.0
2014-Sep-17 15:31N 51°19' E 003°14'0 0.0
2014-Sep-17 14:28N 51°19' E 003°14'0 0.0
2014-Sep-17 13:28N 51°19' E 003°14'0 0.0
2014-Sep-17 12:31N 51°19' E 003°14'2 1.4
2014-Sep-17 11:23N 51°20' E 003°13'4 5.2
2014-Sep-17 10:33N 51°23' E 003°08'1514.7
2014-Sep-17 09:33N 51°22' E 002°44'1010.3
2014-Sep-17 08:32N 51°33' E 002°41'5711.4
2014-Sep-17 03:34N 52°27' E 002°14'1616.1
2014-Sep-17 02:34N 52°42' E 002°04'1616.2
2014-Sep-17 01:33N 52°52' E 001°43'1616.2
2014-Sep-17 00:33N 53°03' E 001°24'6315.7
2014-Sep-16 20:34N 53°57' E 000°31'1615.6
2014-Sep-16 19:34N 54°09' E 000°13'1615.8
2014-Sep-16 18:34N 54°20' W 000°06'1515.4
2014-Sep-16 17:34N 54°31' W 000°25'1515.0
2014-Sep-16 16:33N 54°41' W 000°44'1515.0
2014-Sep-16 15:33N 54°51' W 001°03'1514.8
2014-Sep-16 14:33N 55°01' W 001°23'2 0.2
2014-Sep-16 06:30N 55°01' W 001°20'9 9.0
2014-Sep-16 05:32N 54°55' W 001°09'1414.0
2014-Sep-16 04:32N 54°46' W 000°52'1514.8
2014-Sep-16 03:32N 54°35' W 000°33'1515.1
2014-Sep-16 02:34N 54°26' W 000°14'1615.7
2014-Sep-16 01:33N 54°14' E 000°04'1615.6
2014-Sep-16 00:34N 54°03' E 000°23'1514.8
2014-Sep-15 23:34N 53°51' E 000°38'1514.4
2014-Sep-15 22:33N 53°39' E 000°50'1714.0
2014-Sep-15 21:19N 53°24' E 001°05'1114.4
2014-Sep-15 20:32N 53°14' E 001°14'1515.6
2014-Sep-15 19:34N 53°01' E 001°27'1716.8
2014-Sep-15 18:33N 52°50' E 001°48'1515.1
2014-Sep-15 17:34N 52°38' E 002°02'1716.7
2014-Sep-15 16:34N 52°21' E 001°57'1615.6
2014-Sep-15 15:34N 52°06' E 001°52'1414.5
2014-Sep-15 14:34N 51°52' E 001°48'1413.7
2014-Sep-15 13:33N 51°38' E 001°49'1313.4
2014-Sep-15 12:33N 51°29' E 001°34'1312.7
2014-Sep-15 11:34N 51°29' E 001°13'1514.6
2014-Sep-15 10:33N 51°28' E 000°50'4 3.5
2014-Sep-15 09:32N 51°27' E 000°45'0 0.0
2014-Sep-15 08:32N 51°27' E 000°45'0 0.0
2014-Sep-15 07:32N 51°27' E 000°45'0 0.0
2014-Sep-15 06:26N 51°27' E 000°45'0 0.0
2014-Sep-15 05:26N 51°27' E 000°45'0 0.0
2014-Sep-15 04:32N 51°27' E 000°45'0 0.0
2014-Sep-15 03:32N 51°27' E 000°45'0 0.0
2014-Sep-15 02:26N 51°27' E 000°45'0 0.0
2014-Sep-15 01:32N 51°27' E 000°45'0 0.0
2014-Sep-15 00:32N 51°27' E 000°45'0 0.0
2014-Sep-14 23:32N 51°27' E 000°45'0 0.0
2014-Sep-14 22:32N 51°27' E 000°45'0 0.0
2014-Sep-14 21:32N 51°27' E 000°45'0 0.0
2014-Sep-14 20:29N 51°27' E 000°45'0 0.0
2014-Sep-14 19:32N 51°27' E 000°45'0 0.0
2014-Sep-14 18:33N 51°27' E 000°45'4 4.3
2014-Sep-14 17:33N 51°28' E 000°51'1414.3
2014-Sep-14 16:33N 51°29' E 001°14'1414.0
2014-Sep-14 15:33N 51°22' E 001°34'1414.2
2014-Sep-14 14:34N 51°09' E 001°38'9 9.3
2014-Sep-14 13:33N 51°00' E 001°32'35 8.2
2014-Sep-14 09:15N 50°32' E 000°58'811.9
2014-Sep-14 08:33N 50°28' E 000°47'1414.1
2014-Sep-14 07:33N 50°24' E 000°26'32814.6
2014-Sep-13 09:05N 47°28' W 006°36'1116.1
2014-Sep-13 08:25N 47°19' W 006°43'57215.1
2014-Sep-11 18:33N 38°02' W 009°39'1615.6
2014-Sep-11 17:33N 37°47' W 009°35'8413.5
2014-Sep-11 11:18N 36°36' W 008°36'36313.1
2014-Sep-10 07:32N 37°13' W 001°04'15015.9
2014-Sep-09 22:08N 39°16' E 000°46'2916.1
2014-Sep-09 20:18N 39°41' E 001°04'1216.1
2014-Sep-09 19:33N 39°52' E 001°11'1616.2
2014-Sep-09 18:33N 40°06' E 001°21'1616.2
2014-Sep-09 17:33N 40°21' E 001°31'1615.8
2014-Sep-09 16:33N 40°34' E 001°41'1515.4
2014-Sep-09 15:33N 40°48' E 001°51'1515.2
2014-Sep-09 14:33N 41°01' E 002°00'1515.0
2014-Sep-09 13:33N 41°15' E 002°09'5 4.4
2014-Sep-09 12:28N 41°20' E 002°09'0 0.0
2014-Sep-09 04:27N 41°20' E 002°09'6 6.1
2014-Sep-09 03:32N 41°15' E 002°11'1414.7
2014-Sep-09 02:33N 41°02' E 002°03'1514.8
2014-Sep-09 01:33N 40°48' E 001°54'1514.8
2014-Sep-09 00:34N 40°35' E 001°46'1514.9
2014-Sep-08 23:33N 40°22' E 001°37'1514.6
2014-Sep-08 22:33N 40°09' E 001°27'1514.7
2014-Sep-08 21:33N 39°56' E 001°18'1514.7
2014-Sep-08 20:33N 39°43' E 001°09'5210.1
2014-Sep-08 15:23N 38°57' E 000°38'21 9.7
2014-Sep-08 13:11N 38°38' E 000°25'9 9.9
2014-Sep-08 12:18N 38°31' E 000°19'10 9.7
2014-Sep-08 11:13N 38°22' E 000°11'9 9.4
2014-Sep-08 10:19N 38°15' E 000°05'8 9.7
2014-Sep-08 09:30N 38°09' W 000°00'19 9.8
2014-Sep-08 07:33N 37°53' W 000°14'10 9.8
2014-Sep-08 06:33N 37°45' W 000°21'1010.0
2014-Sep-08 05:33N 37°36' W 000°28'1110.0
2014-Sep-08 04:28N 37°28' W 000°37'910.0
2014-Sep-08 03:33N 37°22' W 000°46'1010.0
2014-Sep-08 02:31N 37°16' W 000°56'  
Track history (hours):
 
Tides and Currents Weather Stations Pressure Air Temp Water Temp Dewpoint Dewpoint Depression Visibility Wind Speed Wind Dir Waves Ship Positions

Galicia

Last reported at 2014-Sep-18 01:33 UTC. Time now 2014-Sep-18 01:37 UTC.
Position N 51°24' E 003°07'.

Length 149 m; draft 5.7 m.

Type: Cargo ship. MMSI: 224548000.

Date/timePositionNaut miles runAvg speedWind from/ knotsBaromVisibWave heightAir tempDewpointWater temp
2014-Sep-18 01:33N 51°24' E 003°07'5 2.5
2014-Sep-17 23:29N 51°20' E 003°13'2 1.3
2014-Sep-17 22:13N 51°19' E 003°14'0 0.0
2014-Sep-17 21:25N 51°19' E 003°14'0 0.0
2014-Sep-17 20:31N 51°19' E 003°14'0 0.0
2014-Sep-17 19:31N 51°19' E 003°14'0 0.0
2014-Sep-17 18:31N 51°19' E 003°14'0 0.0
2014-Sep-17 17:31N 51°19' E 003°14'0 0.0
2014-Sep-17 16:31N 51°19' E 003°14'0 0.0
2014-Sep-17 15:31N 51°19' E 003°14'0 0.0
2014-Sep-17 14:28N 51°19' E 003°14'0 0.0
2014-Sep-17 13:28N 51°19' E 003°14'0 0.0
2014-Sep-17 12:31N 51°19' E 003°14'2 1.4
2014-Sep-17 11:23N 51°20' E 003°13'4 5.2
2014-Sep-17 10:33N 51°23' E 003°08'1514.7
2014-Sep-17 09:33N 51°22' E 002°44'1010.3
2014-Sep-17 08:32N 51°33' E 002°41'5711.4
2014-Sep-17 03:34N 52°27' E 002°14'1616.1
2014-Sep-17 02:34N 52°42' E 002°04'1616.2
2014-Sep-17 01:33N 52°52' E 001°43'1616.2
2014-Sep-17 00:33N 53°03' E 001°24'6315.7
2014-Sep-16 20:34N 53°57' E 000°31'1615.6
2014-Sep-16 19:34N 54°09' E 000°13'1615.8
2014-Sep-16 18:34N 54°20' W 000°06'1515.4
2014-Sep-16 17:34N 54°31' W 000°25'1515.0
2014-Sep-16 16:33N 54°41' W 000°44'1515.0
2014-Sep-16 15:33N 54°51' W 001°03'1514.8
2014-Sep-16 14:33N 55°01' W 001°23'2 0.2
2014-Sep-16 06:30N 55°01' W 001°20'9 9.0
2014-Sep-16 05:32N 54°55' W 001°09'1414.0
2014-Sep-16 04:32N 54°46' W 000°52'1514.8
2014-Sep-16 03:32N 54°35' W 000°33'1515.1
2014-Sep-16 02:34N 54°26' W 000°14'1615.7
2014-Sep-16 01:33N 54°14' E 000°04'1615.6
2014-Sep-16 00:34N 54°03' E 000°23'1514.8
2014-Sep-15 23:34N 53°51' E 000°38'1514.4
2014-Sep-15 22:33N 53°39' E 000°50'1714.0
2014-Sep-15 21:19N 53°24' E 001°05'1114.4
2014-Sep-15 20:32N 53°14' E 001°14'1515.6
2014-Sep-15 19:34N 53°01' E 001°27'1716.8
2014-Sep-15 18:33N 52°50' E 001°48'1515.1
2014-Sep-15 17:34N 52°38' E 002°02'1716.7
2014-Sep-15 16:34N 52°21' E 001°57'1615.6
2014-Sep-15 15:34N 52°06' E 001°52'1414.5
2014-Sep-15 14:34N 51°52' E 001°48'1413.7
2014-Sep-15 13:33N 51°38' E 001°49'1313.4
2014-Sep-15 12:33N 51°29' E 001°34'1312.7
2014-Sep-15 11:34N 51°29' E 001°13'1514.6
2014-Sep-15 10:33N 51°28' E 000°50'4 3.5
2014-Sep-15 09:32N 51°27' E 000°45'0 0.0
2014-Sep-15 08:32N 51°27' E 000°45'0 0.0
2014-Sep-15 07:32N 51°27' E 000°45'0 0.0
2014-Sep-15 06:26N 51°27' E 000°45'0 0.0
2014-Sep-15 05:26N 51°27' E 000°45'0 0.0
2014-Sep-15 04:32N 51°27' E 000°45'0 0.0
2014-Sep-15 03:32N 51°27' E 000°45'0 0.0
2014-Sep-15 02:26N 51°27' E 000°45'0 0.0
2014-Sep-15 01:32N 51°27' E 000°45'0 0.0
2014-Sep-15 00:32N 51°27' E 000°45'0 0.0
2014-Sep-14 23:32N 51°27' E 000°45'0 0.0
2014-Sep-14 22:32N 51°27' E 000°45'0 0.0
2014-Sep-14 21:32N 51°27' E 000°45'0 0.0
2014-Sep-14 20:29N 51°27' E 000°45'0 0.0
2014-Sep-14 19:32N 51°27' E 000°45'0 0.0
2014-Sep-14 18:33N 51°27' E 000°45'4 4.3
2014-Sep-14 17:33N 51°28' E 000°51'1414.3
2014-Sep-14 16:33N 51°29' E 001°14'1414.0
2014-Sep-14 15:33N 51°22' E 001°34'1414.2
2014-Sep-14 14:34N 51°09' E 001°38'9 9.3
2014-Sep-14 13:33N 51°00' E 001°32'35 8.2
2014-Sep-14 09:15N 50°32' E 000°58'811.9
2014-Sep-14 08:33N 50°28' E 000°47'1414.1
2014-Sep-14 07:33N 50°24' E 000°26'32814.6
2014-Sep-13 09:05N 47°28' W 006°36'1116.1
2014-Sep-13 08:25N 47°19' W 006°43'57215.1
2014-Sep-11 18:33N 38°02' W 009°39'1615.6
2014-Sep-11 17:33N 37°47' W 009°35'8413.5
2014-Sep-11 11:18N 36°36' W 008°36'36313.1
2014-Sep-10 07:32N 37°13' W 001°04'15015.9
2014-Sep-09 22:08N 39°16' E 000°46'2916.1
2014-Sep-09 20:18N 39°41' E 001°04'1216.1
2014-Sep-09 19:33N 39°52' E 001°11'1616.2
2014-Sep-09 18:33N 40°06' E 001°21'1616.2
2014-Sep-09 17:33N 40°21' E 001°31'1615.8
2014-Sep-09 16:33N 40°34' E 001°41'1515.4
2014-Sep-09 15:33N 40°48' E 001°51'1515.2
2014-Sep-09 14:33N 41°01' E 002°00'1515.0
2014-Sep-09 13:33N 41°15' E 002°09'5 4.4
2014-Sep-09 12:28N 41°20' E 002°09'0 0.0
2014-Sep-09 04:27N 41°20' E 002°09'6 6.1
2014-Sep-09 03:32N 41°15' E 002°11'1414.7
2014-Sep-09 02:33N 41°02' E 002°03'1514.8
2014-Sep-09 01:33N 40°48' E 001°54'1514.8
2014-Sep-09 00:34N 40°35' E 001°46'1514.9
2014-Sep-08 23:33N 40°22' E 001°37'1514.6
2014-Sep-08 22:33N 40°09' E 001°27'1514.7
2014-Sep-08 21:33N 39°56' E 001°18'1514.7
2014-Sep-08 20:33N 39°43' E 001°09'5210.1
2014-Sep-08 15:23N 38°57' E 000°38'21 9.7
2014-Sep-08 13:11N 38°38' E 000°25'9 9.9
2014-Sep-08 12:18N 38°31' E 000°19'10 9.7
2014-Sep-08 11:13N 38°22' E 000°11'9 9.4
2014-Sep-08 10:19N 38°15' E 000°05'8 9.7
2014-Sep-08 09:30N 38°09' W 000°00'19 9.8
2014-Sep-08 07:33N 37°53' W 000°14'10 9.8
2014-Sep-08 06:33N 37°45' W 000°21'1010.0
2014-Sep-08 05:33N 37°36' W 000°28'1110.0
2014-Sep-08 04:28N 37°28' W 000°37'910.0
2014-Sep-08 03:33N 37°22' W 000°46'1010.0
2014-Sep-08 02:31N 37°16' W 000°56'  

Dump ship's entire track history